Flight Track Log - Related Links

Times and Time Zones

All times are in EDT time to prevent confusion due to time zone crossing. See the ASH2603 flight status page for this flight to view local times or setup timezone preferences in your user account.

Time Position Orientation Groundspeed Altitude Reporting Facility
EDT Latitude Longitude Course Direction KTS MPH feet Rate Location/Type
Fri 06:55:15 AM 30.4960 -87.1689 204° Southwest  Level FlightAware Approximate
Fri 06:55:50 AM 30.4572 -87.1889 143° Southeast 154 177 800  Level Jacksonville Center
Fri 06:56:57 AM 30.4106 -87.1483 35° Northeast 213 245 3,100 2,220 Climbing Jacksonville Center
Fri 06:57:57 AM 30.4642 -87.1050 15° North 244 281 5,500 2,500 Climbing Jacksonville Center
Fri 06:58:57 AM 30.5400 -87.0817 16° North 258 297 8,100 2,800 Climbing Jacksonville Center
Fri 06:59:57 AM 30.6161 -87.0561 17° North 270 311 11,100 2,550 Climbing Jacksonville Center
Fri 07:00:57 AM 30.7006 -87.0261 17° North 293 337 13,200 2,200 Climbing Jacksonville Center
Fri 07:01:57 AM 30.7914 -86.9936 17° North 317 365 15,500 2,200 Climbing Jacksonville Center
Fri 07:02:57 AM 30.8800 -86.9614 29° Northeast 342 394 17,600 2,150 Climbing Jacksonville Center
Fri 07:03:57 AM 30.9631 -86.9067 37° Northeast 347 399 19,800 2,100 Climbing Jacksonville Center
Fri 07:04:57 AM 31.0511 -86.8306 37° Northeast 347 399 21,800 1,800 Climbing Jacksonville Center
Fri 07:05:57 AM 31.1347 -86.7564 38° Northeast 359 413 23,400 1,700 Climbing Jacksonville Center
Fri 07:06:57 AM 31.2228 -86.6772 38° Northeast 376 433 25,200 1,709 Climbing Jacksonville Center
Fri 07:08:28 AM 31.3536 -86.5556 36° Northeast 402 463 27,700 1,510 Climbing Atlanta Center
Fri 07:09:28 AM 31.4472 -86.4753 38° Northeast 407 468 29,000 1,350 Climbing Atlanta Center
Fri 07:10:28 AM 31.5364 -86.3925 38° Northeast 407 468 30,400 1,250 Climbing Atlanta Center
Fri 07:11:28 AM 31.6297 -86.3072 37° Northeast 412 474 31,500 1,050 Climbing Atlanta Center
Fri 07:12:28 AM 31.7275 -86.2192 38° Northeast 429 494 32,500 1,200 Climbing Atlanta Center
Fri 07:13:28 AM 31.8228 -86.1311 37° Northeast 437 503 33,900 1,350 Climbing Atlanta Center
Fri 07:14:28 AM 31.9161 -86.0478 38° Northeast 429 494 35,200 1,100 Climbing Atlanta Center
Fri 07:15:28 AM 32.0114 -85.9592 39° Northeast 423 487 36,100 750 Climbing Atlanta Center
Fri 07:16:28 AM 32.1025 -85.8728 36° Northeast 423 487 36,700 450 Climbing Atlanta Center
Fri 07:17:28 AM 32.2039 -85.7842 39° Northeast 434 499 37,000 150 Climbing Atlanta Center
Fri 07:18:28 AM 32.3033 -85.6903 39° Northeast 444 511 37,000  Level Atlanta Center
Fri 07:19:28 AM 32.3983 -85.5986 38° Northeast 444 511 37,000  Level Atlanta Center
Fri 07:20:28 AM 32.4850 -85.5186 37° Northeast 444 511 37,000  Level Atlanta Center
Fri 07:21:28 AM 32.5819 -85.4317 38° Northeast 439 505 37,000  Level Atlanta Center
Fri 07:22:28 AM 32.6789 -85.3419 43° Northeast 441 507 37,000  Level Atlanta Center
Fri 07:23:28 AM 32.7678 -85.2444 57° Northeast 441 507 37,000  Level Atlanta Center
Fri 07:24:28 AM 32.8400 -85.1094 59° Northeast 428 493 37,000  Level Atlanta Center
Fri 07:25:28 AM 32.9056 -84.9792 59° Northeast 446 513 37,000  Level Atlanta Center
Fri 07:26:28 AM 32.9714 -84.8461 60° Northeast 454 522 37,000  Level Atlanta Center
Fri 07:27:28 AM 33.0369 -84.7128 59° Northeast 465 535 37,000  Level Atlanta Center
Fri 07:28:28 AM 33.1000 -84.5869 61° Northeast 458 527 37,000  Level Atlanta Center
Fri 07:29:28 AM 33.1611 -84.4558 59° Northeast 452 520 37,000  Level Atlanta Center
Fri 07:30:28 AM 33.2178 -84.3417 60° Northeast 447 514 37,000 -250 Level Atlanta Center
Fri 07:31:28 AM 33.2828 -84.2078 60° Northeast 447 514 36,500 -700 Descending Atlanta Center
Fri 07:32:28 AM 33.3475 -84.0736 59° Northeast 453 521 35,600 -750 Descending Atlanta Center
Fri 07:33:28 AM 33.4144 -83.9392 60° Northeast 470 541 35,000 -300 Descending Atlanta Center
Fri 07:34:28 AM 33.4767 -83.8072 60° Northeast 465 535 35,000  Level Atlanta Center
Fri 07:35:28 AM 33.5411 -83.6725 61° Northeast 465 535 35,000 -347 Level Atlanta Center
Fri 07:36:29 AM 33.6033 -83.5400 60° Northeast 460 529 34,300 -900 Descending Atlanta Center
Fri 07:37:28 AM 33.6675 -83.4072 60° Northeast 460 529 33,200 -1,109 Descending Atlanta Center
Fri 07:38:28 AM 33.7314 -83.2719 60° Northeast 465 535 32,100 -1,300 Descending Atlanta Center
Fri 07:39:28 AM 33.7950 -83.1414 61° Northeast 465 535 30,600 -1,700 Descending Atlanta Center
Fri 07:40:28 AM 33.8567 -83.0081 61° Northeast 437 503 28,700 -1,900 Descending Atlanta Center
Fri 07:41:28 AM 33.9142 -82.8847 59° Northeast 423 487 26,800 -1,700 Descending Atlanta Center
Fri 07:42:28 AM 33.9733 -82.7639 61° Northeast 410 472 25,300 -1,150 Descending Atlanta Center
Fri 07:43:28 AM 34.0283 -82.6453 63° Northeast 410 472 24,500 -650 Descending Atlanta Center
Fri 07:44:28 AM 34.0792 -82.5264 60° Northeast 398 458 24,000 -250 Descending Atlanta Center
Fri 07:45:28 AM 34.1361 -82.4075 61° Northeast 398 458 24,000  Level Atlanta Center
Fri 07:46:28 AM 34.1908 -82.2883 61° Northeast 398 458 24,000 -250 Level Atlanta Center
Fri 07:47:28 AM 34.2456 -82.1692 49° Northeast 398 458 23,500 -1,350 Descending Atlanta Center
Fri 07:48:28 AM 34.3169 -82.0694 47° Northeast 398 458 21,300 -2,150 Descending Atlanta Center
Fri 07:49:28 AM 34.3906 -81.9747 47° Northeast 385 443 19,200 -2,150 Descending Atlanta Center
Fri 07:50:28 AM 34.4600 -81.8847 42° Northeast 372 428 17,000 -2,018 Descending Atlanta Center
Fri 07:51:18 AM 34.5233 -81.8150 45° Northeast 370 426 15,500 -1,818 Descending Atlanta Center
Fri 07:52:07 AM 34.5825 -81.7428 46° Northeast 361 415 14,000 -1,745 Descending Atlanta Center
Fri 07:53:08 AM 34.6478 -81.6603 48° Northeast 341 392 12,300 -934 Descending Atlanta Center
Fri 07:54:09 AM 34.7086 -81.5778 46° Northeast 335 386 12,100 -98 Descending Atlanta Center
Fri 07:55:10 AM 34.7717 -81.4975 46° Northeast 326 375 12,100 -148 Level Atlanta Center
Fri 07:56:11 AM 34.8369 -81.4144 46° Northeast 322 371 11,800 -984 Descending Atlanta Center
Fri 07:57:12 AM 34.8997 -81.3339 47° Northeast 318 366 10,100 -1,328 Descending Atlanta Center
Fri 07:58:13 AM 34.9586 -81.2561 46° Northeast 316 364 9,100 -492 Descending Atlanta Center
Fri 07:59:14 AM 35.0194 -81.1781 49° Northeast 315 362 9,100  Level Atlanta Center
Fri 07:59:55 AM 35.0608 -81.1203 42° Northeast 315 362 9,100  Level FAA TRACON SMA TRACON (SMA)
Fri 08:00:35 AM 35.1053 -81.0708 North 311 358 9,100  Level FAA TRACON SMA TRACON (SMA)
Fri 08:01:15 AM 35.1458 -81.0636 356° North 278 320 9,100 -76 Level FAA TRACON SMA TRACON (SMA)
Fri 08:01:54 AM 35.1969 -81.0678 356° North 263 303 9,000 -835 Descending FAA TRACON SMA TRACON (SMA)
Fri 08:02:34 AM 35.2431 -81.0714 356° North 259 298 8,000 -1,333 Descending FAA TRACON SMA TRACON (SMA)
Fri 08:03:15 AM 35.2914 -81.0756 356° North 256 295 7,200 -1,185 Descending FAA TRACON SMA TRACON (SMA)
Fri 08:03:55 AM 35.3386 -81.0797 357° North 244 281 6,400 -1,139 Descending FAA TRACON SMA TRACON (SMA)
Fri 08:04:34 AM 35.3797 -81.0828 26° Northeast 231 266 5,700 -1,215 Descending FAA TRACON SMA TRACON (SMA)
Fri 08:05:14 AM 35.4153 -81.0614 111° Southeast 234 269 4,800 -1,425 Descending FAA TRACON SMA TRACON (SMA)
Fri 08:05:54 AM 35.4008 -81.0161 146° Southeast 217 250 3,800 -1,111 Descending FAA TRACON SMA TRACON (SMA)
Fri 08:06:35 AM 35.3733 -80.9931 146° Southeast 188 216 3,300 -732 Descending FAA TRACON SMA TRACON (SMA)

Login

Don't have an account? Register now (free) for customized features, flight alerts, and more!